createdAt,value
2023-03-29T00:00:17.156Z,98092.13
2023-03-29T00:03:07.936Z,98091.48
2023-03-29T00:05:41.958Z,98089.23
2023-03-29T00:08:15.490Z,98092.13
2023-03-29T00:10:50.010Z,98087.77
2023-03-29T00:13:20.142Z,98092.34
2023-03-29T00:15:54.818Z,98097.50
2023-03-29T00:18:25.813Z,98095.77
2023-03-29T00:21:01.202Z,98100.33
2023-03-29T00:23:32.040Z,98102.39
2023-03-29T00:26:03.056Z,98099.63
2023-03-29T00:28:34.171Z,98098.80
2023-03-29T00:31:12.315Z,98096.05
2023-03-29T00:33:43.922Z,98093.80
2023-03-29T00:36:15.339Z,98099.22
2023-03-29T00:38:44.372Z,98098.05
2023-03-29T00:41:15.070Z,98091.38
2023-03-29T00:44:00.703Z,98094.39
2023-03-29T00:46:32.616Z,98104.17
2023-03-29T00:49:15.187Z,98102.60
2023-03-29T00:51:48.709Z,98111.80
2023-03-29T00:54:26.562Z,98107.89
2023-03-29T00:56:56.293Z,98114.52
2023-03-29T00:59:33.391Z,98116.11
2023-03-29T01:02:07.571Z,98114.92
2023-03-29T01:04:51.122Z,98116.41
2023-03-29T01:07:31.162Z,98117.91
2023-03-29T01:10:26.184Z,98122.85
2023-03-29T01:13:12.173Z,98126.98
2023-03-29T01:15:44.735Z,98127.49
2023-03-29T01:18:15.273Z,98124.80
2023-03-29T01:21:08.229Z,98130.91
2023-03-29T01:23:43.858Z,98129.13
2023-03-29T01:26:42.050Z,98131.96
2023-03-29T01:29:40.594Z,98130.55
2023-03-29T01:32:24.712Z,98130.03
2023-03-29T01:35:18.626Z,98127.77
2023-03-29T01:38:14.282Z,98132.48
2023-03-29T01:40:45.221Z,98136.62
2023-03-29T01:43:32.348Z,98136.54
2023-03-29T01:46:09.321Z,98137.91
2023-03-29T01:49:19.171Z,98137.04
2023-03-29T01:52:21.137Z,98136.66
2023-03-29T01:54:57.006Z,98129.60
2023-03-29T01:57:29.987Z,98136.56
2023-03-29T02:00:00.352Z,98136.81
2023-03-29T02:02:35.456Z,98135.73
2023-03-29T02:05:10.494Z,98130.04
2023-03-29T02:07:41.082Z,98137.20
2023-03-29T02:10:13.587Z,98134.52
2023-03-29T02:12:44.322Z,98136.85
2023-03-29T02:15:21.026Z,98132.33
2023-03-29T02:17:51.786Z,98137.34
2023-03-29T02:20:28.788Z,98132.02
2023-03-29T02:23:09.914Z,98139.40
2023-03-29T02:25:39.950Z,98141.67
2023-03-29T02:28:11.360Z,98146.80
2023-03-29T02:31:19.855Z,98144.97
2023-03-29T02:33:55.633Z,98148.18
2023-03-29T02:36:44.453Z,98147.70
2023-03-29T02:39:17.381Z,98153.27
2023-03-29T02:41:51.664Z,98160.43
2023-03-29T02:44:26.205Z,98159.33
2023-03-29T02:47:08.286Z,98159.31
2023-03-29T02:49:40.307Z,98172.23
2023-03-29T02:52:15.686Z,98172.77
2023-03-29T02:54:49.345Z,98171.58
2023-03-29T02:57:27.192Z,98174.49
2023-03-29T02:59:59.535Z,98176.31
2023-03-29T03:02:30.130Z,98178.52
2023-03-29T03:05:00.328Z,98181.57
2023-03-29T03:07:34.179Z,98174.81
2023-03-29T03:10:04.720Z,98179.98
2023-03-29T03:12:34.626Z,98179.70
2023-03-29T03:15:07.048Z,98185.91
2023-03-29T03:17:40.532Z,98185.29
2023-03-29T03:20:15.638Z,98185.30
2023-03-29T03:22:50.236Z,98187.34
2023-03-29T03:25:22.940Z,98193.84
2023-03-29T03:27:52.776Z,98191.05
2023-03-29T03:30:26.037Z,98194.42
2023-03-29T03:33:17.412Z,98192.80
2023-03-29T03:35:50.313Z,98197.06
2023-03-29T03:38:36.798Z,98200.96
2023-03-29T03:41:13.829Z,98199.05
2023-03-29T03:43:49.615Z,98207.15
2023-03-29T03:46:19.948Z,98208.23
2023-03-29T03:49:04.464Z,98209.42
2023-03-29T03:51:44.912Z,98213.40
2023-03-29T03:54:15.765Z,98218.81
2023-03-29T03:57:04.967Z,98216.23
2023-03-29T03:59:59.623Z,98221.52
2023-03-29T04:02:43.972Z,98224.46
2023-03-29T04:05:16.886Z,98230.83
2023-03-29T04:07:49.898Z,98235.33
2023-03-29T04:10:33.659Z,98237.17
2023-03-29T04:13:32.547Z,98238.77
2023-03-29T04:16:28.293Z,98238.68
2023-03-29T04:18:59.386Z,98242.09
2023-03-29T04:21:29.790Z,98247.43
2023-03-29T04:23:59.511Z,98244.05
2023-03-29T04:26:28.506Z,98250.80
2023-03-29T04:29:06.243Z,98248.59
2023-03-29T04:31:43.294Z,98253.34
2023-03-29T04:35:23.834Z,98258.52
2023-03-29T04:37:55.180Z,98258.52
2023-03-29T04:40:45.297Z,98262.64
2023-03-29T04:43:51.282Z,98270.44
2023-03-29T04:46:45.707Z,98272.58
2023-03-29T04:49:22.933Z,98276.40
2023-03-29T04:51:57.460Z,98280.97
2023-03-29T04:54:30.714Z,98279.75
2023-03-29T04:57:30.042Z,98286.86
2023-03-29T05:00:29.029Z,98287.98
2023-03-29T05:03:24.898Z,98287.27
2023-03-29T05:06:07.638Z,98290.11
2023-03-29T05:08:45.488Z,98294.23
2023-03-29T05:11:28.994Z,98294.84
2023-03-29T05:17:11.136Z,98290.41
2023-03-29T05:19:40.703Z,98302.47
2023-03-29T05:22:11.365Z,98298.95
2023-03-29T05:24:42.910Z,98301.71
2023-03-29T05:27:23.420Z,98304.71
2023-03-29T05:30:07.561Z,98303.67
2023-03-29T05:33:05.930Z,98304.41
2023-03-29T05:35:42.789Z,98307.00
2023-03-29T05:38:16.591Z,98312.34
2023-03-29T05:40:53.311Z,98311.23
2023-03-29T05:43:48.639Z,98310.64
2023-03-29T05:46:23.726Z,98313.73
2023-03-29T05:48:56.698Z,98315.27
2023-03-29T05:51:37.625Z,98314.80
2023-03-29T05:54:10.049Z,98313.83
2023-03-29T05:56:40.367Z,98314.99
2023-03-29T05:59:13.294Z,98321.37
2023-03-29T06:01:49.644Z,98319.42
2023-03-29T06:04:22.335Z,98326.26
2023-03-29T06:07:04.442Z,98323.75
2023-03-29T06:09:35.024Z,98329.20
2023-03-29T06:12:08.404Z,98332.28
2023-03-29T06:14:42.328Z,98332.69
2023-03-29T06:17:31.283Z,98339.50
2023-03-29T06:20:02.465Z,98341.23
2023-03-29T06:22:33.071Z,98342.84
2023-03-29T06:25:05.097Z,98346.57
2023-03-29T06:27:35.617Z,98346.23
2023-03-29T06:30:10.031Z,98348.35
2023-03-29T06:32:40.543Z,98349.08
2023-03-29T06:35:19.594Z,98367.88
2023-03-29T06:37:57.502Z,98363.64
2023-03-29T06:40:43.745Z,98374.09
2023-03-29T06:43:14.549Z,98369.61
2023-03-29T06:45:57.237Z,98370.66
2023-03-29T06:48:41.512Z,98373.23
2023-03-29T06:51:12.237Z,98376.32
2023-03-29T06:53:42.438Z,98381.21
2023-03-29T06:56:11.980Z,98380.58
2023-03-29T06:58:42.129Z,98386.33
2023-03-29T07:01:25.437Z,98378.00
2023-03-29T07:04:10.621Z,98380.34
2023-03-29T07:07:21.827Z,98380.63
2023-03-29T07:09:56.770Z,98386.35
2023-03-29T07:13:01.558Z,98386.98
2023-03-29T07:15:31.097Z,98390.55
2023-03-29T07:18:27.090Z,98393.81
2023-03-29T07:20:57.799Z,98395.44
2023-03-29T07:23:27.723Z,98394.77
2023-03-29T07:25:58.405Z,98391.47
2023-03-29T07:28:29.112Z,98399.27
2023-03-29T07:31:08.437Z,98404.92
2023-03-29T07:33:43.141Z,98404.16
2023-03-29T07:36:13.009Z,98405.75
2023-03-29T07:38:43.414Z,98406.60
2023-03-29T07:41:17.836Z,98406.17
2023-03-29T07:43:54.683Z,98404.00
2023-03-29T07:46:26.847Z,98413.08
2023-03-29T07:48:58.915Z,98407.98
2023-03-29T07:51:28.810Z,98414.35
2023-03-29T07:54:09.379Z,98419.14
2023-03-29T07:56:55.828Z,98406.38
2023-03-29T07:59:33.867Z,98410.23
2023-03-29T08:02:12.090Z,98410.95
2023-03-29T08:04:47.189Z,98407.57
2023-03-29T08:07:21.599Z,98416.29
2023-03-29T08:10:27.366Z,98414.64
2023-03-29T08:13:21.968Z,98414.56
2023-03-29T08:16:12.895Z,98421.41
2023-03-29T08:18:52.702Z,98423.59
2023-03-29T08:21:23.477Z,98416.12
2023-03-29T08:24:00.977Z,98416.45
2023-03-29T08:26:42.695Z,98417.89
2023-03-29T08:29:12.902Z,98425.42
2023-03-29T08:31:43.412Z,98427.46
2023-03-29T08:34:12.838Z,98424.95
2023-03-29T08:36:53.623Z,98429.52
2023-03-29T08:39:29.675Z,98416.08
2023-03-29T08:42:50.034Z,98409.35
2023-03-29T08:45:37.625Z,98419.55
2023-03-29T08:48:23.125Z,98418.25
2023-03-29T08:51:00.661Z,98426.89
2023-03-29T08:53:44.713Z,98426.62
2023-03-29T08:56:34.326Z,98416.27
2023-03-29T08:59:23.417Z,98420.82
2023-03-29T09:01:59.259Z,98432.02
2023-03-29T09:04:38.267Z,98422.62
2023-03-29T09:07:17.328Z,98407.30
2023-03-29T09:09:51.463Z,98419.33
2023-03-29T09:12:38.718Z,98416.29
2023-03-29T09:15:31.401Z,98419.39
2023-03-29T09:18:14.689Z,98416.25
2023-03-29T09:21:26.727Z,98429.27
2023-03-29T09:24:12.123Z,98427.18
2023-03-29T09:27:31.992Z,98422.48
2023-03-29T09:30:19.817Z,98420.98
2023-03-29T09:33:05.129Z,98422.77
2023-03-29T09:36:15.882Z,98425.00
2023-03-29T09:38:54.812Z,98417.36
2023-03-29T09:41:53.384Z,98407.15
2023-03-29T09:44:36.866Z,98402.09
2023-03-29T09:47:35.792Z,98397.16
2023-03-29T09:50:39.119Z,98405.73
2023-03-29T09:53:11.296Z,98404.95
2023-03-29T09:55:50.726Z,98411.14
2023-03-29T09:58:34.872Z,98401.94
2023-03-29T10:01:09.780Z,98404.77
2023-03-29T10:03:40.558Z,98398.66
2023-03-29T10:06:16.953Z,98400.80
2023-03-29T10:08:59.460Z,98399.52
2023-03-29T10:11:39.894Z,98405.41
2023-03-29T10:14:22.170Z,98413.17
2023-03-29T10:16:57.246Z,98408.27
2023-03-29T10:19:35.086Z,98403.97
2023-03-29T10:22:16.899Z,98395.92
2023-03-29T10:24:55.141Z,98404.52
2023-03-29T10:27:31.399Z,98405.08
2023-03-29T10:30:09.958Z,98404.39
2023-03-29T10:32:41.718Z,98412.83
2023-03-29T10:35:29.685Z,98408.93
2023-03-29T10:38:03.933Z,98404.09
2023-03-29T10:40:43.448Z,98400.60
2023-03-29T10:43:26.724Z,98402.57
2023-03-29T10:46:08.897Z,98402.86
2023-03-29T10:49:11.508Z,98410.48
2023-03-29T10:51:46.453Z,98401.82
2023-03-29T10:54:22.322Z,98407.16
2023-03-29T10:56:58.878Z,98409.77
2023-03-29T11:00:09.818Z,98404.98
2023-03-29T11:03:02.132Z,98403.63
2023-03-29T11:06:01.829Z,98400.33
2023-03-29T11:09:12.536Z,98398.16
2023-03-29T11:12:04.423Z,98385.30
2023-03-29T11:15:20.759Z,98390.87
2023-03-29T11:18:23.843Z,98386.73
2023-03-29T11:21:12.134Z,98379.55
2023-03-29T11:24:25.423Z,98375.07
2023-03-29T11:27:52.164Z,98372.55
2023-03-29T11:30:47.849Z,98369.15
2023-03-29T11:33:25.337Z,98376.89
2023-03-29T11:36:11.409Z,98374.52
2023-03-29T11:38:50.053Z,98362.90
2023-03-29T11:41:25.989Z,98366.49
2023-03-29T11:44:18.283Z,98359.69
2023-03-29T11:47:05.644Z,98359.84
2023-03-29T11:49:38.365Z,98357.91
2023-03-29T11:52:19.221Z,98354.58
2023-03-29T11:55:03.994Z,98345.67
2023-03-29T11:58:04.223Z,98350.20
2023-03-29T12:00:42.695Z,98347.50
2023-03-29T12:03:21.355Z,98353.31
2023-03-29T12:06:05.547Z,98362.81
2023-03-29T12:09:12.129Z,98361.58
2023-03-29T12:12:01.036Z,98353.73
2023-03-29T12:15:00.414Z,98358.72
2023-03-29T12:17:47.718Z,98365.98
2023-03-29T12:20:27.551Z,98370.02
2023-03-29T12:23:01.835Z,98367.77
2023-03-29T12:25:59.022Z,98368.13
2023-03-29T12:28:33.695Z,98370.09
2023-03-29T12:31:10.059Z,98363.27
2023-03-29T12:34:02.607Z,98369.91
2023-03-29T12:37:04.463Z,98371.60
2023-03-29T12:40:18.442Z,98378.18
2023-03-29T12:43:10.309Z,98371.33
2023-03-29T12:45:50.479Z,98367.87
2023-03-29T12:51:46.267Z,98357.17
2023-03-29T12:54:21.468Z,98350.69
2023-03-29T12:57:20.546Z,98350.77
2023-03-29T13:08:22.520Z,98340.04
2023-03-29T13:10:57.499Z,98344.33
2023-03-29T13:13:41.997Z,98344.98
2023-03-29T13:16:21.168Z,98342.66
2023-03-29T13:19:11.524Z,98333.56
2023-03-29T13:22:03.750Z,98330.36
2023-03-29T13:37:06.874Z,98332.86
2023-03-29T13:40:48.899Z,98326.53
2023-03-29T13:44:14.891Z,98329.71
2023-03-29T13:46:48.104Z,98331.09
2023-03-29T13:49:22.657Z,98322.52
2023-03-29T13:52:05.885Z,98319.12
2023-03-29T13:54:51.076Z,98318.23
2023-03-29T14:00:40.422Z,98313.03
2023-03-29T14:03:15.889Z,98310.91
2023-03-29T14:05:54.092Z,98308.95
2023-03-29T14:08:40.697Z,98306.35
2023-03-29T14:11:24.246Z,98303.87
2023-03-29T14:13:56.666Z,98310.10
2023-03-29T14:16:33.915Z,98305.94
2023-03-29T14:19:06.001Z,98307.73
2023-03-29T14:21:58.109Z,98307.38
2023-03-29T14:24:40.158Z,98310.64
2023-03-29T14:27:13.384Z,98311.81
2023-03-29T14:29:49.564Z,98320.33
2023-03-29T14:32:31.945Z,98321.63
2023-03-29T14:35:01.676Z,98318.74
2023-03-29T14:37:33.224Z,98320.84
2023-03-29T14:40:02.718Z,98319.98
2023-03-29T14:42:33.328Z,98313.40
2023-03-29T14:45:07.294Z,98315.48
2023-03-29T14:47:41.056Z,98319.21
2023-03-29T14:50:51.335Z,98310.75
2023-03-29T14:53:26.763Z,98306.44
2023-03-29T14:56:03.611Z,98309.30
2023-03-29T14:58:36.657Z,98309.58
2023-03-29T15:01:19.882Z,98309.64
2023-03-29T15:04:09.526Z,98312.10
2023-03-29T15:06:42.073Z,98316.64
2023-03-29T15:09:38.734Z,98313.86
2023-03-29T15:12:16.758Z,98311.83
2023-03-29T15:15:17.473Z,98313.48
2023-03-29T15:18:17.089Z,98315.08
2023-03-29T15:20:47.119Z,98313.67
2023-03-29T15:23:17.420Z,98313.27
2023-03-29T15:25:53.436Z,98314.42
2023-03-29T15:28:35.144Z,98313.39
2023-03-29T15:31:29.386Z,98316.85
2023-03-29T15:34:09.478Z,98316.11
2023-03-29T15:36:48.410Z,98320.88
2023-03-29T15:39:20.824Z,98318.15
2023-03-29T15:41:54.536Z,98319.55
2023-03-29T15:44:31.578Z,98317.56
2023-03-29T15:47:01.128Z,98322.55
2023-03-29T15:49:30.410Z,98324.52
2023-03-29T15:52:00.149Z,98328.98
2023-03-29T15:54:34.036Z,98332.61
2023-03-29T15:57:12.231Z,98334.06
2023-03-29T15:59:52.361Z,98337.09
2023-03-29T16:02:25.571Z,98332.67
2023-03-29T16:04:55.700Z,98332.74
2023-03-29T16:07:26.260Z,98332.14
2023-03-29T16:09:59.153Z,98333.48
2023-03-29T16:12:31.371Z,98334.95
2023-03-29T16:15:01.483Z,98339.85
2023-03-29T16:17:31.392Z,98339.59
2023-03-29T16:20:01.781Z,98344.77
2023-03-29T16:22:32.615Z,98344.15
2023-03-29T16:25:06.074Z,98339.91
2023-03-29T16:27:35.431Z,98344.61
2023-03-29T16:30:06.493Z,98345.05
2023-03-29T16:32:39.531Z,98346.83
2023-03-29T16:35:18.508Z,98347.61
2023-03-29T16:37:48.700Z,98351.98
2023-03-29T16:40:17.942Z,98354.18
2023-03-29T16:42:48.450Z,98357.74
2023-03-29T16:45:20.434Z,98359.64
2023-03-29T16:47:49.581Z,98366.38
2023-03-29T16:50:22.367Z,98364.08
2023-03-29T16:52:54.556Z,98370.13
2023-03-29T16:55:25.201Z,98373.20
2023-03-29T16:57:56.182Z,98372.25
2023-03-29T17:00:33.837Z,98372.00
2023-03-29T17:03:05.990Z,98378.07
2023-03-29T17:05:41.845Z,98377.70
2023-03-29T17:08:13.648Z,98378.66
2023-03-29T17:10:45.504Z,98380.96
2023-03-29T17:13:18.276Z,98386.41
2023-03-29T17:15:52.926Z,98390.63
2023-03-29T17:18:28.832Z,98394.68
2023-03-29T17:21:05.054Z,98392.81
2023-03-29T17:23:37.812Z,98400.58
2023-03-29T17:26:14.611Z,98399.69
2023-03-29T17:28:45.927Z,98400.33
2023-03-29T17:31:17.608Z,98402.25
2023-03-29T17:33:48.000Z,98410.42
2023-03-29T17:36:17.120Z,98411.61
2023-03-29T17:38:51.361Z,98411.95
2023-03-29T17:44:25.620Z,98411.73
2023-03-29T17:46:55.759Z,98416.26
2023-03-29T17:49:25.003Z,98420.46
2023-03-29T17:51:58.267Z,98417.55
2023-03-29T17:54:29.767Z,98421.64
2023-03-29T17:56:59.836Z,98421.35
2023-03-29T17:59:31.230Z,98426.30
2023-03-29T18:02:03.236Z,98436.71
2023-03-29T18:04:35.970Z,98438.72
2023-03-29T18:07:05.523Z,98440.71
2023-03-29T18:09:35.968Z,98447.91
2023-03-29T18:12:08.858Z,98450.86
2023-03-29T18:14:38.785Z,98450.52
2023-03-29T18:17:09.184Z,98452.54
2023-03-29T18:19:41.570Z,98452.91
2023-03-29T18:22:11.192Z,98451.30
2023-03-29T18:24:41.925Z,98455.79
2023-03-29T18:27:13.084Z,98459.77
2023-03-29T18:29:44.913Z,98459.44
2023-03-29T18:32:18.253Z,98458.42
2023-03-29T18:34:48.592Z,98458.92
2023-03-29T18:37:18.963Z,98463.88
2023-03-29T18:39:52.311Z,98460.73
2023-03-29T18:42:25.632Z,98465.64
2023-03-29T18:44:55.182Z,98467.77
2023-03-29T18:47:27.454Z,98467.88
2023-03-29T18:49:58.270Z,98467.11
2023-03-29T18:52:28.593Z,98468.47
2023-03-29T18:54:57.796Z,98469.30
2023-03-29T18:57:29.323Z,98479.77
2023-03-29T19:00:01.549Z,98482.45
2023-03-29T19:02:34.498Z,98482.20
2023-03-29T19:05:09.697Z,98484.42
2023-03-29T19:07:40.489Z,98480.71
2023-03-29T19:10:11.393Z,98481.42
2023-03-29T19:12:41.257Z,98479.96
2023-03-29T19:15:14.331Z,98484.54
2023-03-29T19:17:44.330Z,98487.58
2023-03-29T19:20:19.497Z,98491.89
2023-03-29T19:22:52.357Z,98486.11
2023-03-29T19:25:23.049Z,98488.26
2023-03-29T19:31:17.888Z,98489.23
2023-03-29T19:33:47.799Z,98496.17
2023-03-29T19:36:17.564Z,98494.72
2023-03-29T19:38:50.166Z,98492.13
2023-03-29T19:41:23.772Z,98489.42
2023-03-29T19:43:54.314Z,98486.39
2023-03-29T19:46:28.269Z,98484.51
2023-03-29T19:49:05.082Z,98481.47
2023-03-29T19:51:39.102Z,98478.29
2023-03-29T19:54:13.320Z,98472.11
2023-03-29T19:56:43.422Z,98469.36
2023-03-29T19:59:18.188Z,98473.51
2023-03-29T20:01:51.357Z,98467.13
2023-03-29T20:04:25.944Z,98472.61
2023-03-29T20:06:58.321Z,98475.67
2023-03-29T20:09:27.612Z,98480.67
2023-03-29T20:11:57.800Z,98479.45
2023-03-29T20:14:28.137Z,98479.67
2023-03-29T20:16:57.880Z,98481.70
2023-03-29T20:19:27.822Z,98484.47
2023-03-29T20:21:59.340Z,98477.55
2023-03-29T20:24:29.286Z,98476.21
2023-03-29T20:26:59.200Z,98476.21
2023-03-29T20:29:29.711Z,98468.95
2023-03-29T20:31:59.585Z,98471.34
2023-03-29T20:34:28.844Z,98469.98
2023-03-29T20:37:01.300Z,98469.35
2023-03-29T20:39:32.003Z,98469.94
2023-03-29T20:42:02.639Z,98469.41
2023-03-29T20:44:35.253Z,98465.87
2023-03-29T20:47:06.909Z,98467.45
2023-03-29T20:49:37.762Z,98467.08
2023-03-29T20:52:16.254Z,98463.67
2023-03-29T20:54:46.895Z,98464.65
2023-03-29T20:57:20.200Z,98464.19
2023-03-29T20:59:50.582Z,98463.00
2023-03-29T21:02:23.164Z,98460.85
2023-03-29T21:04:53.808Z,98467.09
2023-03-29T21:07:27.074Z,98464.74
2023-03-29T21:09:57.375Z,98465.15
2023-03-29T21:12:28.090Z,98466.46
2023-03-29T21:14:57.254Z,98464.04
2023-03-29T21:17:27.744Z,98465.60
2023-03-29T21:19:57.246Z,98466.17
2023-03-29T21:22:26.369Z,98466.28
2023-03-29T21:24:56.784Z,98474.55
2023-03-29T21:27:26.781Z,98478.23
2023-03-29T21:29:56.391Z,98481.71
2023-03-29T21:32:27.630Z,98481.30
2023-03-29T21:34:56.879Z,98480.48
2023-03-29T21:37:27.155Z,98488.11
2023-03-29T21:39:57.472Z,98490.56
2023-03-29T21:42:27.030Z,98492.67
2023-03-29T21:44:56.545Z,98491.59
2023-03-29T21:47:25.910Z,98490.90
2023-03-29T21:49:56.543Z,98487.64
2023-03-29T21:52:26.371Z,98484.55
2023-03-29T21:54:56.641Z,98479.96
2023-03-29T21:57:26.280Z,98475.98
2023-03-29T21:59:57.105Z,98481.38
2023-03-29T22:02:27.696Z,98485.10
2023-03-29T22:04:57.017Z,98490.31
2023-03-29T22:07:26.857Z,98494.11
2023-03-29T22:09:59.110Z,98496.26
2023-03-29T22:12:29.343Z,98498.73
2023-03-29T22:15:06.657Z,98495.55
2023-03-29T22:17:36.603Z,98496.45
2023-03-29T22:20:15.444Z,98493.02
2023-03-29T22:22:51.001Z,98492.92
2023-03-29T22:25:21.884Z,98490.88
2023-03-29T22:27:51.304Z,98492.63
2023-03-29T22:30:21.783Z,98491.32
2023-03-29T22:32:52.300Z,98487.02
2023-03-29T22:35:22.214Z,98487.39
2023-03-29T22:37:51.487Z,98493.39
2023-03-29T22:40:21.177Z,98498.30
2023-03-29T22:42:50.391Z,98497.33
2023-03-29T22:45:21.793Z,98488.94
2023-03-29T22:47:51.295Z,98490.91
2023-03-29T22:50:21.289Z,98495.14
2023-03-29T22:52:52.006Z,98494.23
2023-03-29T22:55:22.602Z,98497.58
2023-03-29T22:57:52.480Z,98497.52
2023-03-29T23:00:23.116Z,98491.75
2023-03-29T23:02:53.230Z,98485.73
2023-03-29T23:05:23.190Z,98490.30
2023-03-29T23:07:53.214Z,98489.21
2023-03-29T23:10:22.912Z,98498.34
2023-03-29T23:12:52.187Z,98504.26
2023-03-29T23:15:28.385Z,98503.11
2023-03-29T23:17:59.581Z,98508.93
2023-03-29T23:20:30.874Z,98507.96
2023-03-29T23:23:01.126Z,98506.29
2023-03-29T23:25:30.428Z,98499.90
2023-03-29T23:28:01.171Z,98501.63
2023-03-29T23:30:32.387Z,98497.75
2023-03-29T23:33:02.766Z,98496.93
2023-03-29T23:35:32.803Z,98497.30
2023-03-29T23:38:02.532Z,98496.42
2023-03-29T23:40:33.591Z,98495.91
2023-03-29T23:43:04.772Z,98499.63
2023-03-29T23:45:37.191Z,98503.27
2023-03-29T23:48:08.140Z,98502.61
2023-03-29T23:50:37.648Z,98501.05
2023-03-29T23:53:07.717Z,98502.31
2023-03-29T23:55:38.734Z,98501.38
2023-03-29T23:58:09.486Z,98497.09
